Lancaster, New Hampshire
Current Conditions -  °F | °C
As of 4:52 PM on Monday 26 Jan 2015 (Local Time) from KHIE Reporting Station
Clear Clear  
Wind Chill: 15°   Ceiling: Unl
Heat Index: 15°   Visibility: 10mi
Dew Point: -3°   Wind: 0mph
Humidity: 45%   Direction: NA
Pressure: 30.06"   Gusts: NA
Location:  44.49°N, 71.57°W
Report Text: KHIE 262152Z AUTO 00000KT 10SM CLR M09/M19 A3006 RMK AO2 SLP209 T10941194
Loading
Personal Weather Stations






























Interactive Weather Map New forecast layout! Learn more

10-Day Weather Forecast

Advertisements
Track Severe Weather on mobile